Time;durP1;ratioP1;P1;durP2;ratioP2;P2;SDS_P1;SDS_P2;PMS_P1;PMS_P2;Temp;Humidity;BMP_temperature;BMP_pressure;BME280_temperature;BME280_humidity;BME280_pressure;Samples;Min_cycle;Max_cycle;Signal;HPM_P1;HPM_P2
2022/11/10 00:02:04;;;;;;;9.65;2.75;;;10.70;85.80;;;;;;5063683;28;20052;-72
2022/11/10 00:04:50;;;;;;;14.65;2.60;;;10.70;85.90;;;;;;5070469;28;20052;-71
2022/11/10 00:07:35;;;;;;;10.43;2.60;;;10.70;85.80;;;;;;5070531;28;20064;-71
2022/11/10 00:10:21;;;;;;;10.13;2.63;;;10.70;85.90;;;;;;5068640;28;20045;-72
2022/11/10 00:13:07;;;;;;;13.40;2.72;;;10.70;85.90;;;;;;5051940;28;20279;-72
2022/11/10 00:18:57;;;;;;;11.05;2.60;;;10.70;86.00;;;;;;5071758;28;20059;-72
2022/11/10 00:21:43;;;;;;;11.93;2.63;;;10.70;86.10;;;;;;5071940;28;20136;-72
2022/11/10 00:24:29;;;;;;;11.97;2.50;;;10.70;86.00;;;;;;5090370;28;20126;-72
2022/11/10 00:27:15;;;;;;;11.52;2.67;;;10.70;86.10;;;;;;5072203;28;20329;-72
2022/11/10 00:30:01;;;;;;;11.85;2.70;;;10.60;86.10;;;;;;5053058;28;20536;-72
2022/11/10 00:32:48;;;;;;;11.93;2.95;;;10.60;86.10;;;;;;5055200;28;20049;-72
2022/11/10 00:35:34;;;;;;;7.80;2.35;;;10.60;86.10;;;;;;5068588;28;20760;-72
2022/11/10 00:38:20;;;;;;;11.20;2.97;;;10.60;86.20;;;;;;5073834;28;20040;-72
2022/11/10 00:41:05;;;;;;;9.82;2.67;;;10.60;86.10;;;;;;5076335;28;21961;-72
2022/11/10 00:43:51;;;;;;;10.30;2.70;;;10.60;86.10;;;;;;5092634;28;20040;-72
2022/11/10 00:46:36;;;;;;;12.45;2.85;;;10.60;86.20;;;;;;5075237;28;20143;-72
2022/11/10 00:49:23;;;;;;;13.20;3.35;;;10.60;86.10;;;;;;5072247;28;20052;-72
2022/11/10 00:52:10;;;;;;;13.77;2.93;;;10.50;86.10;;;;;;5057489;28;20553;-72
2022/11/10 00:54:56;;;;;;;10.88;3.00;;;10.50;86.20;;;;;;5064786;28;20669;-72
2022/11/10 00:57:41;;;;;;;9.75;2.80;;;10.50;86.10;;;;;;5064368;28;20508;-72
2022/11/10 01:00:27;;;;;;;9.55;2.40;;;10.50;86.10;;;;;;5075011;28;20048;-72
2022/11/10 01:03:14;;;;;;;9.43;2.40;;;10.50;86.20;;;;;;5084814;28;20549;-72
2022/11/10 01:06:05;;;;;;;9.57;2.67;;;10.50;86.10;;;;;;5073083;28;20049;-72
2022/11/10 01:08:51;;;;;;;11.65;3.03;;;10.50;86.10;;;;;;5054619;28;20732;-71
2022/11/10 01:11:37;;;;;;;12.48;2.80;;;10.40;86.10;;;;;;5055001;28;20041;-72
2022/11/10 01:14:23;;;;;;;12.57;2.83;;;10.40;86.00;;;;;;5054136;28;20047;-72
2022/11/10 01:17:08;;;;;;;10.73;2.80;;;10.40;86.10;;;;;;5054880;28;20052;-72
2022/11/10 01:19:56;;;;;;;11.47;3.07;;;10.40;86.20;;;;;;5069692;28;20041;-72
2022/11/10 01:22:41;;;;;;;10.43;3.28;;;10.40;86.30;;;;;;5096252;28;20433;-72
2022/11/10 01:25:28;;;;;;;10.50;3.35;;;10.40;86.30;;;;;;5074616;28;20411;-71
2022/11/10 01:28:14;;;;;;;9.10;3.35;;;10.40;86.30;;;;;;5074632;28;20052;-71
2022/11/10 01:31:00;;;;;;;8.02;2.80;;;10.40;86.30;;;;;;5072572;28;20477;-72
2022/11/10 01:33:46;;;;;;;9.93;3.00;;;10.30;86.20;;;;;;5069671;28;20490;-72
2022/11/10 01:36:31;;;;;;;12.00;3.33;;;10.30;86.20;;;;;;5072664;28;20256;-71
2022/11/10 01:39:17;;;;;;;13.32;3.33;;;10.30;86.20;;;;;;5066219;28;20044;-72
2022/11/10 01:42:04;;;;;;;11.95;2.78;;;10.30;86.30;;;;;;5075144;28;20052;-72
2022/11/10 01:45:28;;;;;;;14.13;3.03;;;10.30;86.30;;;;;;5074281;28;20088;-72
2022/11/10 01:48:18;;;;;;;11.50;3.23;;;10.30;86.40;;;;;;5064973;28;20072;-72
2022/11/10 01:51:09;;;;;;;9.63;2.78;;;10.30;86.30;;;;;;5072270;28;20259;-72
2022/11/10 01:53:59;;;;;;;11.80;2.75;;;10.20;86.30;;;;;;5067885;28;20051;-71
2022/11/10 01:56:48;;;;;;;10.77;2.78;;;10.20;86.30;;;;;;5074675;28;20056;-72
2022/11/10 01:59:43;;;;;;;9.60;2.95;;;10.20;86.30;;;;;;5074052;28;20053;-72
2022/11/10 02:02:33;;;;;;;11.20;2.87;;;10.20;86.30;;;;;;5074135;28;20049;-72
2022/11/10 02:05:20;;;;;;;8.32;2.63;;;10.20;86.30;;;;;;5082834;28;20259;-72
2022/11/10 02:08:06;;;;;;;11.48;2.97;;;10.20;86.30;;;;;;5078119;28;20066;-72
2022/11/10 02:10:51;;;;;;;7.40;2.35;;;10.10;86.30;;;;;;5073623;28;20060;-72
2022/11/10 02:13:37;;;;;;;11.52;2.80;;;10.10;86.30;;;;;;5073791;28;20052;-72
2022/11/10 02:16:25;;;;;;;10.47;2.70;;;10.10;86.30;;;;;;5074118;28;20107;-72
2022/11/10 02:19:15;;;;;;;8.40;2.60;;;10.10;86.20;;;;;;5058952;28;20268;-72
2022/11/10 02:22:02;;;;;;;9.63;2.80;;;10.10;86.30;;;;;;5076843;28;20118;-72
2022/11/10 02:24:48;;;;;;;8.68;2.55;;;10.10;86.20;;;;;;5074232;28;20052;-72
2022/11/10 02:27:33;;;;;;;11.30;2.83;;;10.10;86.20;;;;;;5063101;28;20576;-72
2022/11/10 02:30:19;;;;;;;13.17;2.73;;;10.10;86.20;;;;;;5053226;28;20049;-72
2022/11/10 02:33:04;;;;;;;11.82;2.75;;;10.00;86.30;;;;;;5071645;28;20357;-72
2022/11/10 02:35:50;;;;;;;13.35;2.80;;;10.00;86.20;;;;;;5074088;28;20107;-72
2022/11/10 02:38:37;;;;;;;9.70;3.05;;;10.00;86.30;;;;;;5052218;28;20056;-72
2022/11/10 02:41:23;;;;;;;12.40;2.80;;;10.00;86.30;;;;;;5071907;28;20053;-72
2022/11/10 02:44:08;;;;;;;9.60;2.57;;;10.00;86.40;;;;;;5053221;28;20107;-72
2022/11/10 02:46:54;;;;;;;12.23;2.38;;;10.00;86.30;;;;;;5053469;28;20264;-72
2022/11/10 02:49:39;;;;;;;8.50;2.80;;;10.00;86.30;;;;;;5069607;28;20246;-72
2022/11/10 02:52:25;;;;;;;10.30;2.20;;;10.00;86.30;;;;;;5072815;28;20044;-72
2022/11/10 02:55:12;;;;;;;9.05;2.75;;;10.00;86.50;;;;;;5092020;28;20056;-71
2022/11/10 02:57:58;;;;;;;11.80;2.80;;;10.00;86.50;;;;;;5053058;28;20049;-72
2022/11/10 03:00:43;;;;;;;12.88;3.33;;;10.00;86.80;;;;;;5056228;28;20272;-72
2022/11/10 03:03:29;;;;;;;9.70;2.72;;;10.00;86.80;;;;;;5053260;28;20048;-71
2022/11/10 03:06:15;;;;;;;15.02;3.63;;;10.00;87.10;;;;;;5081003;28;20059;-72
2022/11/10 03:09:01;;;;;;;13.57;3.58;;;10.00;87.20;;;;;;5073130;28;20183;-71
2022/11/10 03:11:47;;;;;;;11.40;3.40;;;10.00;87.20;;;;;;5073203;28;20122;-72
2022/11/10 03:14:33;;;;;;;12.45;3.08;;;10.00;87.40;;;;;;5071203;28;20756;-72
2022/11/10 03:17:44;;;;;;;14.52;3.40;;;10.00;87.50;;;;;;5076149;28;20052;-71
2022/11/10 03:20:30;;;;;;;15.35;4.03;;;10.00;87.60;;;;;;5070663;28;20100;-71
2022/11/10 03:23:17;;;;;;;13.98;3.83;;;10.00;87.60;;;;;;5052961;28;20041;-72
2022/11/10 03:26:04;;;;;;;13.27;3.93;;;10.00;87.60;;;;;;5071002;28;20070;-72
2022/11/10 03:28:51;;;;;;;11.35;3.78;;;10.00;87.70;;;;;;5052591;28;20937;-72
2022/11/10 03:31:36;;;;;;;9.20;3.58;;;10.00;87.70;;;;;;5069456;28;20178;-72
2022/11/10 03:34:22;;;;;;;13.90;3.83;;;10.00;87.70;;;;;;5052153;28;20041;-72
2022/11/10 03:37:08;;;;;;;16.02;3.70;;;10.00;87.70;;;;;;5052298;28;20055;-72
2022/11/10 03:39:53;;;;;;;14.47;4.17;;;10.00;87.80;;;;;;5052042;28;20040;-72
2022/11/10 03:42:42;;;;;;;17.95;4.18;;;10.10;87.90;;;;;;5052700;28;20263;-72
2022/11/10 03:45:29;;;;;;;16.90;3.85;;;10.00;87.70;;;;;;5052373;28;20052;-72
2022/11/10 03:48:14;;;;;;;13.80;3.88;;;10.00;87.70;;;;;;5051242;28;20052;-71
2022/11/10 03:51:00;;;;;;;9.98;3.60;;;10.10;87.80;;;;;;5055391;28;20529;-71
2022/11/10 03:53:46;;;;;;;14.03;4.27;;;10.10;87.90;;;;;;5072265;28;20055;-72
2022/11/10 03:56:31;;;;;;;13.23;4.10;;;10.10;87.80;;;;;;5083328;28;21275;-71
2022/11/10 03:59:17;;;;;;;16.67;4.10;;;10.10;88.00;;;;;;5052062;28;20056;-72
2022/11/10 04:02:04;;;;;;;14.48;4.65;;;10.10;88.00;;;;;;5070627;28;20498;-72
2022/11/10 04:11:12;;;;;;;15.40;4.43;;;10.10;87.90;;;;;;5041245;28;21262;-72
2022/11/10 04:17:01;;;;;;;16.48;5.00;;;10.10;88.00;;;;;;5052396;28;20048;-72
2022/11/10 04:19:48;;;;;;;15.35;4.78;;;10.10;88.00;;;;;;5051938;28;20056;-72
2022/11/10 04:26:27;;;;;;;14.70;5.40;;;10.10;88.20;;;;;;5072024;28;20309;-72
2022/11/10 04:28:42;;;;;;;17.55;5.28;;;10.10;88.40;;;;;;5072079;28;20056;-72
2022/11/10 04:31:29;;;;;;;14.55;4.85;;;10.10;88.40;;;;;;5062142;28;20216;-71
2022/11/10 04:34:15;;;;;;;17.48;4.43;;;10.10;88.40;;;;;;5070028;28;20203;-72
2022/11/10 04:37:02;;;;;;;17.90;5.27;;;10.10;88.30;;;;;;5052064;28;20071;-72
2022/11/10 04:39:47;;;;;;;15.25;4.72;;;10.10;88.50;;;;;;5051426;28;20334;-72
2022/11/10 04:42:33;;;;;;;18.13;5.07;;;10.10;88.50;;;;;;5070314;28;20077;-72
2022/11/10 04:45:18;;;;;;;14.07;4.80;;;10.10;88.40;;;;;;5070028;28;20056;-71
2022/11/10 04:48:04;;;;;;;17.60;4.97;;;10.10;88.40;;;;;;5051943;28;20052;-72
2022/11/10 04:50:50;;;;;;;18.23;5.47;;;10.20;88.60;;;;;;5051712;28;20045;-72
2022/11/10 04:53:37;;;;;;;13.65;5.40;;;10.20;88.50;;;;;;5051819;28;20339;-71
2022/11/10 04:56:24;;;;;;;14.80;4.47;;;10.20;88.70;;;;;;5052071;28;20059;-72
2022/11/10 04:59:10;;;;;;;19.83;4.93;;;10.20;88.60;;;;;;5050571;28;20053;-72
2022/11/10 05:01:59;;;;;;;17.98;5.43;;;10.20;88.70;;;;;;5052101;28;20053;-72
2022/11/10 05:04:45;;;;;;;16.27;4.03;;;10.20;88.70;;;;;;5069580;28;20056;-72
2022/11/10 05:07:30;;;;;;;19.80;4.75;;;10.20;88.60;;;;;;5052101;28;20749;-72
2022/11/10 05:10:18;;;;;;;16.50;4.63;;;10.20;88.60;;;;;;5069116;28;20075;-72
2022/11/10 05:13:04;;;;;;;15.48;4.90;;;10.20;88.60;;;;;;5069606;28;20657;-72
2022/11/10 05:15:51;;;;;;;16.50;4.97;;;10.20;88.70;;;;;;5068864;28;20055;-72
2022/11/10 05:18:36;;;;;;;14.97;4.20;;;10.20;88.70;;;;;;5084670;28;20063;-72
2022/11/10 05:21:22;;;;;;;13.65;4.70;;;10.20;88.70;;;;;;5074693;28;20275;-72
2022/11/10 05:24:08;;;;;;;17.67;4.68;;;10.20;88.70;;;;;;5061110;28;20053;-72
2022/11/10 05:26:55;;;;;;;15.93;5.18;;;10.20;88.60;;;;;;5054680;28;20052;-72
2022/11/10 05:29:41;;;;;;;16.75;5.35;;;10.30;88.70;;;;;;5071734;28;20060;-72
2022/11/10 05:32:26;;;;;;;16.43;5.20;;;10.20;88.80;;;;;;5073853;28;20181;-72
2022/11/10 05:35:11;;;;;;;14.68;5.05;;;10.30;88.80;;;;;;5063637;28;20760;-72
2022/11/10 05:37:57;;;;;;;22.70;5.70;;;10.30;88.90;;;;;;5052719;28;20041;-72
2022/11/10 05:40:43;;;;;;;14.30;5.20;;;10.30;88.80;;;;;;5052435;28;20223;-72
2022/11/10 05:43:30;;;;;;;16.67;5.22;;;10.30;88.80;;;;;;5081760;28;20060;-72
2022/11/10 05:46:15;;;;;;;15.50;5.00;;;10.30;88.80;;;;;;5091317;28;20139;-72
2022/11/10 05:49:00;;;;;;;17.23;5.60;;;10.30;88.70;;;;;;5090766;28;20278;-72
2022/11/10 05:51:45;;;;;;;20.60;5.70;;;10.30;88.70;;;;;;5054548;28;20489;-72
2022/11/10 05:54:31;;;;;;;14.88;5.70;;;10.30;88.70;;;;;;5072487;28;20068;-72
2022/11/10 05:57:17;;;;;;;18.20;6.00;;;10.30;88.70;;;;;;5074174;28;20529;-72
2022/11/10 06:00:06;;;;;;;18.13;5.90;;;10.30;88.80;;;;;;5092473;28;20051;-72
2022/11/10 06:03:00;;;;;;;19.52;6.00;;;10.30;88.70;;;;;;5074014;28;20405;-72
2022/11/10 06:05:45;;;;;;;16.25;5.85;;;10.30;88.80;;;;;;5074635;28;20068;-72
2022/11/10 06:08:31;;;;;;;15.30;5.43;;;10.20;88.80;;;;;;5063235;28;20060;-72
2022/11/10 06:11:16;;;;;;;19.80;6.10;;;10.20;88.80;;;;;;5053792;28;20597;-72
2022/11/10 06:14:03;;;;;;;20.63;6.10;;;10.20;88.90;;;;;;5072144;28;20087;-72
2022/11/10 06:16:50;;;;;;;17.83;5.50;;;10.20;88.90;;;;;;5072313;28;20252;-72
2022/11/10 06:19:35;;;;;;;19.55;6.10;;;10.20;88.80;;;;;;5053463;28;20700;-72
2022/11/10 06:22:21;;;;;;;16.95;5.50;;;10.20;88.70;;;;;;5053604;28;20037;-72
2022/11/10 06:25:07;;;;;;;15.98;6.22;;;10.20;88.80;;;;;;5071202;28;20056;-72
2022/11/10 06:27:53;;;;;;;17.73;6.13;;;10.20;88.90;;;;;;5091255;28;20078;-72
2022/11/10 06:30:39;;;;;;;19.20;5.65;;;10.20;88.90;;;;;;5066130;28;20394;-72
2022/11/10 06:33:25;;;;;;;16.80;5.80;;;10.20;88.90;;;;;;5071312;28;20584;-72
2022/11/10 06:36:11;;;;;;;21.08;6.05;;;10.30;88.70;;;;;;5065506;28;20059;-72
2022/11/10 06:38:57;;;;;;;22.45;6.20;;;10.20;88.70;;;;;;5064123;28;20507;-72
2022/11/10 06:41:42;;;;;;;19.73;5.60;;;10.30;88.80;;;;;;5062152;28;20051;-72
2022/11/10 06:44:28;;;;;;;22.80;5.82;;;10.30;88.70;;;;;;5054575;28;20283;-72
2022/11/10 06:47:15;;;;;;;22.75;6.22;;;10.30;88.70;;;;;;5081909;28;20536;-72
2022/11/10 06:50:02;;;;;;;18.08;5.70;;;10.30;88.70;;;;;;5063114;28;20037;-72
2022/11/10 06:52:54;;;;;;;18.88;5.93;;;10.20;88.70;;;;;;5062360;28;20106;-72
2022/11/10 06:55:39;;;;;;;13.97;5.83;;;10.30;88.60;;;;;;5057717;28;20069;-72
2022/11/10 06:58:25;;;;;;;17.23;5.85;;;10.30;88.60;;;;;;5080880;28;20290;-72
2022/11/10 07:01:10;;;;;;;18.85;5.55;;;10.30;88.50;;;;;;5078152;28;20083;-72
2022/11/10 07:03:56;;;;;;;19.75;6.18;;;10.30;88.50;;;;;;5080950;28;20825;-73
2022/11/10 07:06:43;;;;;;;20.95;5.85;;;10.30;88.50;;;;;;5082715;28;20052;-72
2022/11/10 07:09:28;;;;;;;20.63;6.07;;;10.30;88.50;;;;;;5084145;28;20060;-72
2022/11/10 07:12:14;;;;;;;16.92;6.13;;;10.30;88.50;;;;;;5081178;28;20278;-72
2022/11/10 07:14:59;;;;;;;16.35;6.10;;;10.30;88.50;;;;;;5059395;28;20752;-72
2022/11/10 07:17:45;;;;;;;17.10;5.93;;;10.30;88.40;;;;;;5081521;28;20051;-72
2022/11/10 07:20:31;;;;;;;15.25;4.90;;;10.30;88.50;;;;;;5079196;28;20061;-72
2022/11/10 07:23:17;;;;;;;18.37;6.40;;;10.30;88.50;;;;;;5065949;28;20048;-72
2022/11/10 07:26:03;;;;;;;17.08;5.93;;;10.30;88.50;;;;;;5061864;28;20275;-72
2022/11/10 07:28:48;;;;;;;18.25;6.22;;;10.30;88.60;;;;;;5064856;28;20056;-72
2022/11/10 07:31:34;;;;;;;18.40;5.60;;;10.30;88.60;;;;;;5086305;28;20068;-72
2022/11/10 07:34:20;;;;;;;21.83;6.63;;;10.30;88.60;;;;;;5060583;28;20107;-72
2022/11/10 07:37:05;;;;;;;16.43;5.93;;;10.30;88.70;;;;;;5074555;28;20186;-72
2022/11/10 07:39:52;;;;;;;16.60;6.05;;;10.30;88.60;;;;;;5051674;28;20253;-72
2022/11/10 07:42:39;;;;;;;17.55;5.82;;;10.30;88.70;;;;;;5089567;28;20054;-72
2022/11/10 07:45:25;;;;;;;18.08;5.72;;;10.40;88.70;;;;;;5072325;28;20049;-73
2022/11/10 07:48:10;;;;;;;15.80;5.45;;;10.40;88.60;;;;;;5072817;28;20040;-72
2022/11/10 07:50:56;;;;;;;23.33;6.77;;;10.40;88.60;;;;;;5090311;28;20573;-72
2022/11/10 07:53:42;;;;;;;18.55;6.03;;;10.40;88.60;;;;;;5067232;28;20271;-72
2022/11/10 07:56:29;;;;;;;17.25;6.20;;;10.40;88.60;;;;;;5064427;28;20387;-72
2022/11/10 07:59:14;;;;;;;19.67;6.40;;;10.40;88.70;;;;;;5065832;28;20056;-72
2022/11/10 08:02:00;;;;;;;17.67;6.70;;;10.40;88.60;;;;;;5069297;28;20068;-72
2022/11/10 08:04:46;;;;;;;20.50;6.47;;;10.40;88.60;;;;;;5068577;28;20503;-72
2022/11/10 08:07:31;;;;;;;20.23;6.82;;;10.50;88.60;;;;;;5070936;28;20256;-72
2022/11/10 08:10:17;;;;;;;20.55;7.85;;;10.40;88.60;;;;;;5062835;28;20179;-72
2022/11/10 08:13:06;;;;;;;16.95;7.10;;;10.50;88.60;;;;;;5059104;28;20049;-73
2022/11/10 08:15:52;;;;;;;17.95;7.40;;;10.50;88.60;;;;;;5068218;28;20142;-72
2022/11/10 08:18:37;;;;;;;18.30;8.00;;;10.50;88.50;;;;;;5071783;28;20056;-72
2022/11/10 08:21:23;;;;;;;23.13;7.95;;;10.50;88.40;;;;;;5070813;28;20251;-72
2022/11/10 08:24:09;;;;;;;17.52;7.55;;;10.50;88.40;;;;;;5071119;28;20124;-72
2022/11/10 08:26:56;;;;;;;17.48;7.35;;;10.50;88.50;;;;;;5071664;28;20102;-72
2022/11/10 08:29:42;;;;;;;19.63;9.25;;;10.50;88.50;;;;;;5085190;28;20048;-72
2022/11/10 08:32:28;;;;;;;22.13;8.73;;;10.50;88.50;;;;;;5061607;28;20051;-72
2022/11/10 08:35:15;;;;;;;20.02;8.23;;;10.50;88.60;;;;;;5062700;28;20278;-72
2022/11/10 08:38:07;;;;;;;20.08;8.75;;;10.50;88.70;;;;;;5089562;28;20045;-72
2022/11/10 08:40:52;;;;;;;20.70;8.82;;;10.60;88.80;;;;;;5052058;28;20041;-72
2022/11/10 08:43:38;;;;;;;24.13;8.38;;;10.60;88.80;;;;;;5085623;28;20100;-71
2022/11/10 08:46:25;;;;;;;26.20;8.83;;;10.60;89.00;;;;;;5051001;28;20045;-72
2022/11/10 08:49:11;;;;;;;22.23;9.13;;;10.70;89.10;;;;;;5066389;28;20289;-72
2022/11/10 08:51:57;;;;;;;21.60;8.40;;;10.70;89.20;;;;;;5088351;28;20584;-72
2022/11/10 08:54:42;;;;;;;19.17;7.63;;;10.80;89.30;;;;;;5070582;28;20600;-72
2022/11/10 08:57:28;;;;;;;20.17;7.57;;;10.90;89.20;;;;;;5087712;28;20049;-72
2022/11/10 09:00:15;;;;;;;23.77;8.63;;;10.90;89.20;;;;;;5069682;28;20055;-72
2022/11/10 09:03:07;;;;;;;22.23;8.02;;;10.90;89.10;;;;;;5060852;28;20244;-72
2022/11/10 09:05:53;;;;;;;19.17;7.35;;;11.00;89.20;;;;;;5054395;28;21003;-73
2022/11/10 09:08:39;;;;;;;15.77;7.38;;;11.00;89.10;;;;;;5055982;28;20160;-72
2022/11/10 09:11:25;;;;;;;19.85;7.68;;;11.00;89.00;;;;;;5073036;28;20154;-72
2022/11/10 09:14:10;;;;;;;21.73;7.43;;;11.10;89.00;;;;;;5076831;28;20072;-72
2022/11/10 09:16:56;;;;;;;18.88;6.70;;;11.10;89.00;;;;;;5088193;28;20632;-72
2022/11/10 09:19:43;;;;;;;21.08;7.43;;;11.10;89.10;;;;;;5070660;28;20045;-72
2022/11/10 09:22:29;;;;;;;17.50;7.20;;;11.20;89.00;;;;;;5072278;28;20940;-72
2022/11/10 09:25:14;;;;;;;19.92;7.07;;;11.30;89.00;;;;;;5072927;28;20137;-72
2022/11/10 09:28:00;;;;;;;18.73;7.07;;;11.30;89.00;;;;;;4926269;28;20062;-72
2022/11/10 09:30:47;;;;;;;17.88;6.82;;;11.40;89.00;;;;;;5072463;28;20248;-72
2022/11/10 09:33:33;;;;;;;18.55;6.55;;;11.40;88.90;;;;;;5071995;28;20056;-72
2022/11/10 09:36:19;;;;;;;17.88;6.80;;;11.50;88.90;;;;;;5073165;28;20052;-72
2022/11/10 09:39:05;;;;;;;18.60;6.15;;;11.50;88.70;;;;;;5089731;28;20057;-72
2022/11/10 09:41:51;;;;;;;18.30;5.80;;;11.50;88.70;;;;;;5060729;28;20056;-72
2022/11/10 09:44:43;;;;;;;17.88;6.30;;;11.70;88.60;;;;;;5071097;28;20427;-73
2022/11/10 09:47:36;;;;;;;19.92;6.88;;;11.70;88.60;;;;;;5059664;28;20045;-72
2022/11/10 09:50:29;;;;;;;20.60;6.63;;;11.70;88.50;;;;;;5060884;28;20048;-72
2022/11/10 09:53:28;;;;;;;22.42;7.32;;;11.80;88.60;;;;;;5100663;28;20139;-73
2022/11/10 09:56:19;;;;;;;20.40;7.97;;;11.90;88.60;;;;;;5071553;28;20418;-73
2022/11/10 09:59:14;;;;;;;20.30;7.82;;;11.90;88.40;;;;;;5087956;28;20382;-72
2022/11/10 10:02:03;;;;;;;24.17;6.88;;;12.00;88.10;;;;;;5081689;28;20056;-72
2022/11/10 10:05:09;;;;;;;18.90;6.43;;;12.00;87.90;;;;;;5068384;28;20049;-72
2022/11/10 10:08:01;;;;;;;16.70;6.60;;;12.10;87.60;;;;;;5070257;28;20049;-72
2022/11/10 10:10:53;;;;;;;18.27;5.57;;;12.10;87.40;;;;;;5072511;28;20045;-74
2022/11/10 10:14:02;;;;;;;19.73;5.85;;;12.20;87.30;;;;;;5067403;28;20303;-72
2022/11/10 10:16:57;;;;;;;17.90;5.20;;;12.20;87.20;;;;;;5056888;28;20052;-72
2022/11/10 10:19:48;;;;;;;16.48;4.72;;;12.30;87.10;;;;;;5053598;28;20533;-72
2022/11/10 10:23:04;;;;;;;18.83;5.53;;;12.30;87.00;;;;;;5085021;28;20053;-72
2022/11/10 10:25:53;;;;;;;19.20;4.37;;;12.30;87.10;;;;;;5063709;28;20059;-72
2022/11/10 10:28:41;;;;;;;13.90;3.58;;;12.40;86.90;;;;;;5056475;28;20305;-72
2022/11/10 10:31:33;;;;;;;18.27;4.10;;;12.50;86.90;;;;;;5063606;28;20052;-72
2022/11/10 10:34:23;;;;;;;13.35;3.00;;;12.50;86.50;;;;;;5082260;28;21167;-72
2022/11/10 10:37:22;;;;;;;16.50;3.33;;;12.50;86.30;;;;;;5066922;28;20159;-72
2022/11/10 10:40:14;;;;;;;14.17;2.83;;;12.60;86.60;;;;;;5065989;28;20049;-72
2022/11/10 10:43:01;;;;;;;7.28;1.42;;;12.70;86.30;;;;;;5068730;28;20276;-72
2022/11/10 10:46:04;;;;;;;13.82;2.83;;;12.80;85.30;;;;;;5067103;28;20512;-72
2022/11/10 10:49:06;;;;;;;13.15;2.08;;;12.90;85.20;;;;;;5066634;28;20045;-72
2022/11/10 10:52:02;;;;;;;13.20;2.45;;;12.90;85.20;;;;;;5086975;28;20049;-72
2022/11/10 10:54:59;;;;;;;10.93;2.20;;;13.00;85.20;;;;;;5082762;28;20044;-72
2022/11/10 10:57:51;;;;;;;12.35;2.90;;;13.00;84.80;;;;;;5067234;28;20259;-72
2022/11/10 11:00:45;;;;;;;16.55;2.72;;;13.10;84.20;;;;;;5060279;28;20064;-72
2022/11/10 11:03:40;;;;;;;12.10;2.58;;;13.10;83.60;;;;;;5062422;28;20048;-72
2022/11/10 11:06:27;;;;;;;11.75;2.63;;;13.10;83.60;;;;;;5066494;28;20045;-72
2022/11/10 11:09:19;;;;;;;12.43;2.23;;;13.10;83.70;;;;;;5072098;28;20078;-72
2022/11/10 11:12:08;;;;;;;12.75;2.08;;;13.10;83.80;;;;;;5064710;28;20263;-72
2022/11/10 11:15:12;;;;;;;12.60;2.88;;;13.20;83.40;;;;;;5062343;28;21032;-72
2022/11/10 11:18:01;;;;;;;17.35;2.70;;;13.30;83.30;;;;;;5063759;28;20045;-72
2022/11/10 11:20:57;;;;;;;15.80;2.80;;;13.30;83.40;;;;;;5077388;28;20048;-72
2022/11/10 11:24:11;;;;;;;13.93;2.83;;;13.30;83.60;;;;;;5078127;28;20044;-72
2022/11/10 11:27:00;;;;;;;14.98;2.70;;;13.30;83.80;;;;;;5059324;28;20305;-72
2022/11/10 11:29:59;;;;;;;11.48;2.10;;;13.30;83.90;;;;;;5074947;28;20106;-72
2022/11/10 11:33:21;;;;;;;11.20;2.25;;;13.40;83.50;;;;;;5058388;28;20114;-72
2022/11/10 11:36:16;;;;;;;14.13;2.63;;;13.50;83.20;;;;;;5063216;28;20052;-72
2022/11/10 11:39:10;;;;;;;9.40;1.80;;;13.50;83.30;;;;;;5057743;28;20052;-72
2022/11/10 11:42:07;;;;;;;16.55;2.47;;;13.50;83.10;;;;;;5056429;28;20474;-72
2022/11/10 11:45:06;;;;;;;13.02;2.28;;;13.50;83.00;;;;;;5077341;28;20055;-72
2022/11/10 11:48:07;;;;;;;12.55;1.95;;;13.50;82.80;;;;;;5056057;28;20541;-72
2022/11/10 11:50:57;;;;;;;11.45;2.60;;;13.50;82.80;;;;;;5086516;28;20114;-71
2022/11/10 11:53:55;;;;;;;12.77;2.23;;;13.60;82.40;;;;;;5087351;28;20110;-72
2022/11/10 11:56:43;;;;;;;13.80;2.67;;;13.60;82.20;;;;;;5077612;28;20346;-72
2022/11/10 11:59:50;;;;;;;11.00;2.00;;;13.70;81.80;;;;;;5078597;28;20186;-72
2022/11/10 12:02:56;;;;;;;12.15;2.47;;;13.70;81.70;;;;;;5059305;28;20073;-72
2022/11/10 12:05:56;;;;;;;13.95;2.22;;;13.70;81.70;;;;;;5075263;28;20051;-71
2022/11/10 12:08:53;;;;;;;16.63;2.63;;;13.70;81.30;;;;;;5085189;28;20783;-73
2022/11/10 12:11:54;;;;;;;17.13;2.70;;;13.70;81.40;;;;;;5089189;28;20259;-72
2022/11/10 12:14:51;;;;;;;12.48;2.22;;;13.70;81.60;;;;;;5080691;28;20044;-73
2022/11/10 12:17:48;;;;;;;13.20;2.60;;;13.80;81.40;;;;;;5090064;28;20052;-73
2022/11/10 12:20:49;;;;;;;13.65;2.03;;;13.90;80.80;;;;;;5080993;28;20195;-73
2022/11/10 12:23:50;;;;;;;16.50;2.60;;;13.90;80.70;;;;;;5083531;28;20399;-73
2022/11/10 12:26:41;;;;;;;10.75;1.98;;;13.80;80.90;;;;;;5079749;28;20734;-72
2022/11/10 12:29:32;;;;;;;11.40;2.25;;;13.90;81.00;;;;;;5068370;28;20072;-73
2022/11/10 12:32:25;;;;;;;10.65;2.20;;;13.90;80.70;;;;;;5064703;28;20056;-73
2022/11/10 12:35:16;;;;;;;15.88;2.53;;;13.90;80.70;;;;;;5070424;28;20048;-73
2022/11/10 12:38:07;;;;;;;10.97;1.77;;;13.90;80.80;;;;;;5067965;28;20048;-73
2022/11/10 12:40:58;;;;;;;15.27;2.47;;;13.90;80.90;;;;;;5068504;28;20283;-73
2022/11/10 12:43:57;;;;;;;13.10;2.45;;;13.90;80.90;;;;;;5067476;28;20056;-72
2022/11/10 12:46:44;;;;;;;14.77;2.15;;;13.90;80.70;;;;;;5067863;28;20515;-72
2022/11/10 12:49:35;;;;;;;12.57;2.10;;;13.90;81.00;;;;;;5069153;28;20107;-72
2022/11/10 12:52:27;;;;;;;16.47;2.27;;;13.90;81.00;;;;;;5063992;28;20048;-72
2022/11/10 12:55:14;;;;;;;10.45;1.95;;;13.90;80.90;;;;;;5086829;28;20256;-72
2022/11/10 12:58:03;;;;;;;10.88;2.20;;;13.90;80.70;;;;;;5069244;28;20041;-72
2022/11/10 13:00:57;;;;;;;12.02;1.80;;;13.90;80.70;;;;;;5086794;28;20661;-73
2022/11/10 13:03:55;;;;;;;10.30;1.73;;;13.90;80.70;;;;;;5066187;28;20044;-73
2022/11/10 13:06:49;;;;;;;9.97;1.40;;;14.00;80.50;;;;;;5069549;28;20545;-72
2022/11/10 13:09:36;;;;;;;17.02;2.40;;;14.00;80.40;;;;;;5064402;28;20254;-72
2022/11/10 13:12:24;;;;;;;11.85;1.75;;;14.00;80.50;;;;;;5084873;28;20044;-72
2022/11/10 13:15:47;;;;;;;11.77;2.13;;;14.00;80.60;;;;;;5067574;28;20049;-72
2022/11/10 13:19:01;;;;;;;11.50;2.40;;;14.00;80.60;;;;;;5071493;28;20064;-72
2022/11/10 13:22:36;;;;;;;12.67;1.83;;;14.10;80.20;;;;;;5068476;28;20053;-72
2022/11/10 13:25:41;;;;;;;13.07;2.53;;;14.10;79.90;;;;;;5073763;28;20283;-72
2022/11/10 13:28:56;;;;;;;9.77;2.03;;;14.10;80.00;;;;;;5068516;28;20100;-72
2022/11/10 13:31:56;;;;;;;10.13;2.22;;;14.10;80.30;;;;;;5067730;28;20051;-71
2022/11/10 13:34:44;;;;;;;15.43;2.17;;;14.10;80.20;;;;;;5070712;28;20107;-72
2022/11/10 13:37:49;;;;;;;15.27;2.63;;;14.10;80.10;;;;;;5058130;28;20056;-72
2022/11/10 13:40:38;;;;;;;13.40;2.50;;;14.10;79.80;;;;;;5063806;28;20278;-73
2022/11/10 13:43:26;;;;;;;11.90;2.22;;;14.10;79.70;;;;;;5087067;28;20044;-72
2022/11/10 13:46:12;;;;;;;13.88;2.45;;;14.20;79.40;;;;;;5059325;28;20056;-72
2022/11/10 13:49:18;;;;;;;12.10;2.40;;;14.20;79.50;;;;;;5069949;28;20053;-72
2022/11/10 13:52:15;;;;;;;12.70;2.40;;;14.10;79.60;;;;;;5070661;28;20577;-72
2022/11/10 13:55:12;;;;;;;14.35;2.53;;;14.10;79.60;;;;;;5070723;28;21240;-72
2022/11/10 13:58:01;;;;;;;11.23;2.58;;;14.10;79.80;;;;;;5070158;28;20551;-72
2022/11/10 14:00:50;;;;;;;15.65;2.83;;;14.10;79.70;;;;;;5072926;28;20037;-72
2022/11/10 14:03:54;;;;;;;15.35;3.00;;;14.20;79.30;;;;;;5080750;28;20052;-72
2022/11/10 14:06:44;;;;;;;13.83;2.17;;;14.10;79.30;;;;;;5067495;28;20533;-73
2022/11/10 14:09:38;;;;;;;12.40;2.40;;;14.10;79.30;;;;;;5065825;28;20268;-72
2022/11/10 14:12:30;;;;;;;11.55;2.53;;;14.10;79.30;;;;;;5080709;28;20057;-73
2022/11/10 14:15:19;;;;;;;12.20;2.40;;;14.10;79.40;;;;;;5084574;28;20514;-72
2022/11/10 14:18:17;;;;;;;11.43;2.10;;;14.10;79.40;;;;;;5085700;28;20064;-73
2022/11/10 14:21:03;;;;;;;11.87;2.20;;;14.10;79.20;;;;;;5077344;28;20463;-73
2022/11/10 14:23:52;;;;;;;9.98;2.40;;;14.10;79.20;;;;;;5057782;28;20247;-72
2022/11/10 14:26:42;;;;;;;13.93;2.13;;;14.10;79.40;;;;;;5079984;28;20545;-73
2022/11/10 14:29:34;;;;;;;13.27;2.35;;;14.10;79.40;;;;;;5078136;28;20088;-73
2022/11/10 14:32:23;;;;;;;11.55;2.22;;;14.10;79.50;;;;;;5074118;28;20109;-73
2022/11/10 14:35:20;;;;;;;11.83;2.33;;;14.10;79.60;;;;;;5074708;28;20045;-72
2022/11/10 14:38:16;;;;;;;16.00;2.50;;;14.10;79.70;;;;;;5068045;28;20399;-72
2022/11/10 14:41:04;;;;;;;8.55;2.00;;;14.10;79.70;;;;;;5049206;28;20533;-73
2022/11/10 14:44:02;;;;;;;9.20;1.98;;;14.20;79.40;;;;;;5079997;28;20102;-72
2022/11/10 14:46:48;;;;;;;9.30;1.52;;;14.10;79.50;;;;;;5075930;28;20053;-72
2022/11/10 14:49:33;;;;;;;10.50;2.10;;;14.20;79.30;;;;;;5052233;28;20041;-72